Terminal Aerodrome Forecast
Issued by NWS Green Bay, WI

Home | Current Version | Previous Version | Graphics & Text | Print | Product List | Glossary On
Versions: 1 2 3 4 5 6 7 8 9 10 11 12 13 14 15 16 17 18 19 20 21 22 23 24 25 26 27 28 29 30 31 32
000
FTUS43 KGRB 182330
TAFGRB
TAF
KGRB 182330Z 1900/1924 29006KT P6SM SCT035 BKN100
     FM190900 27003KT P6SM SCT150
      TEMPO 1910/1913 5SM BR
     FM191400 26008KT P6SM FEW040=

USA.gov is the U.S. government's official web portal to all federal, state and local government web resources and services.